Time;durP1;ratioP1;P1;durP2;ratioP2;P2;SDS_P1;SDS_P2;PMS_P1;PMS_P2;Temp;Humidity;BMP_temperature;BMP_pressure;BME280_temperature;BME280_humidity;BME280_pressure;Samples;Min_cycle;Max_cycle;Signal;HPM_P1;HPM_P2
2022/06/26 00:02:18;;;;;;;2.33;2.13;;;;;;;;;;4967714;28;20180;-77
2022/06/26 00:04:44;;;;;;;2.50;2.30;;;;;;;;;;4971669;28;20239;-77
2022/06/26 00:07:11;;;;;;;3.43;2.50;;;;;;;;;;4949512;28;20260;-77
2022/06/26 00:09:37;;;;;;;2.50;2.30;;;;;;;;;;4957246;28;20588;-77
2022/06/26 00:12:03;;;;;;;3.43;2.70;;;;;;;;;;4969804;28;20255;-77
2022/06/26 00:14:29;;;;;;;2.93;2.73;;;;;;;;;;4968758;28;20258;-77
2022/06/26 00:16:56;;;;;;;3.60;2.50;;;;;;;;;;4970769;28;20263;-77
2022/06/26 00:19:22;;;;;;;4.87;2.50;;;;;;;;;;4969942;28;20256;-77
2022/06/26 00:21:50;;;;;;;2.90;2.40;;;;;;;;;;4966307;28;20268;-76
2022/06/26 00:24:17;;;;;;;2.87;2.30;;;;;;;;;;4963168;28;20271;-77
2022/06/26 00:26:43;;;;;;;3.20;2.27;;;;;;;;;;4956856;28;20196;-77
2022/06/26 00:29:09;;;;;;;3.23;2.40;;;;;;;;;;4952172;28;20266;-77
2022/06/26 00:31:35;;;;;;;5.13;2.40;;;;;;;;;;4953784;28;20736;-78
2022/06/26 00:34:01;;;;;;;4.33;2.23;;;;;;;;;;4952823;28;20213;-77
2022/06/26 00:36:28;;;;;;;2.50;2.10;;;;;;;;;;4969364;28;20216;-77
2022/06/26 00:38:54;;;;;;;2.93;2.30;;;;;;;;;;4955810;28;20214;-77
2022/06/26 00:41:20;;;;;;;2.23;1.90;;;;;;;;;;4975346;28;20295;-77
2022/06/26 00:43:46;;;;;;;2.40;2.20;;;;;;;;;;4950614;28;20216;-77
2022/06/26 00:46:13;;;;;;;2.37;2.17;;;;;;;;;;4969664;28;20272;-77
2022/06/26 00:48:39;;;;;;;3.97;2.13;;;;;;;;;;4944869;28;20823;-77
2022/06/26 00:51:05;;;;;;;2.27;2.07;;;;;;;;;;4957536;28;20224;-77
2022/06/26 00:53:32;;;;;;;2.70;2.10;;;;;;;;;;4973015;28;20350;-77
2022/06/26 00:55:58;;;;;;;2.13;1.90;;;;;;;;;;4974629;28;20185;-77
2022/06/26 00:58:24;;;;;;;3.13;2.27;;;;;;;;;;4967980;28;20282;-77
2022/06/26 01:00:51;;;;;;;3.33;2.27;;;;;;;;;;4972430;28;20283;-77
2022/06/26 01:03:17;;;;;;;2.60;2.40;;;;;;;;;;4960397;28;20632;-77
2022/06/26 01:05:43;;;;;;;2.50;2.30;;;;;;;;;;4974481;28;20189;-77
2022/06/26 01:08:10;;;;;;;3.77;2.60;;;;;;;;;;4976786;28;20180;-77
2022/06/26 01:10:38;;;;;;;3.37;2.13;;;;;;;;;;4972901;28;20351;-77
2022/06/26 01:13:06;;;;;;;4.10;2.37;;;;;;;;;;4952628;29;20193;-77
2022/06/26 01:15:33;;;;;;;3.20;2.43;;;;;;;;;;4970867;28;20193;-77
2022/06/26 01:17:59;;;;;;;3.00;2.37;;;;;;;;;;4958747;28;20176;-77
2022/06/26 01:20:25;;;;;;;2.27;2.13;;;;;;;;;;4973752;28;20494;-77
2022/06/26 01:23:07;;;;;;;2.60;2.33;;;;;;;;;;4972131;28;20296;-77
2022/06/26 01:25:44;;;;;;;2.67;2.47;;;;;;;;;;4971581;28;20192;-77
2022/06/26 01:28:11;;;;;;;2.53;2.33;;;;;;;;;;4967168;28;20800;-77
2022/06/26 01:30:38;;;;;;;3.97;2.40;;;;;;;;;;4956225;28;20208;-77
2022/06/26 01:33:05;;;;;;;2.47;2.27;;;;;;;;;;4969446;28;20222;-77
2022/06/26 01:35:32;;;;;;;2.40;2.20;;;;;;;;;;4968884;28;20189;-77
2022/06/26 01:38:29;;;;;;;2.73;2.47;;;;;;;;;;4960180;28;20181;-77
2022/06/26 01:40:56;;;;;;;3.37;2.43;;;;;;;;;;4955229;28;20282;-77
2022/06/26 01:43:29;;;;;;;5.30;2.50;;;;;;;;;;4956551;28;20553;-77
2022/06/26 01:45:56;;;;;;;5.80;2.27;;;;;;;;;;4955932;28;20214;-77
2022/06/26 01:48:29;;;;;;;2.53;2.33;;;;;;;;;;4953178;28;20688;-77
2022/06/26 01:50:57;;;;;;;2.57;2.37;;;;;;;;;;4953323;28;20209;-77
2022/06/26 01:53:24;;;;;;;3.23;2.40;;;;;;;;;;4973243;28;20184;-77
2022/06/26 01:55:50;;;;;;;3.10;2.40;;;;;;;;;;4972375;28;20204;-77
2022/06/26 01:58:23;;;;;;;3.80;2.53;;;;;;;;;;4954773;28;20177;-77
2022/06/26 02:00:53;;;;;;;2.67;2.30;;;;;;;;;;4952190;28;20212;-77
2022/06/26 02:03:23;;;;;;;4.63;2.40;;;;;;;;;;4971923;28;20184;-77
2022/06/26 02:05:50;;;;;;;3.00;2.70;;;;;;;;;;4954994;28;20181;-77
2022/06/26 02:08:16;;;;;;;3.30;2.40;;;;;;;;;;4972259;28;20375;-77
2022/06/26 02:13:37;;;;;;;3.07;2.77;;;;;;;;;;4972435;28;20595;-77
2022/06/26 02:16:05;;;;;;;2.80;2.60;;;;;;;;;;4966645;28;20431;-77
2022/06/26 02:18:31;;;;;;;2.90;2.60;;;;;;;;;;4968161;28;20223;-77
2022/06/26 02:20:57;;;;;;;3.10;2.73;;;;;;;;;;4970798;28;20283;-77
2022/06/26 02:23:24;;;;;;;2.53;2.33;;;;;;;;;;4955255;28;20203;-77
2022/06/26 02:25:51;;;;;;;4.07;2.40;;;;;;;;;;4963065;28;20537;-77
2022/06/26 02:28:17;;;;;;;4.17;2.40;;;;;;;;;;4958718;28;20200;-77
2022/06/26 02:30:44;;;;;;;2.73;2.10;;;;;;;;;;4971918;28;20228;-77
2022/06/26 02:33:11;;;;;;;2.40;2.20;;;;;;;;;;4969795;28;20717;-77
2022/06/26 02:35:38;;;;;;;2.50;2.30;;;;;;;;;;4942436;28;20597;-77
2022/06/26 02:38:04;;;;;;;3.77;2.10;;;;;;;;;;4959835;28;20370;-77
2022/06/26 02:40:31;;;;;;;5.60;2.43;;;;;;;;;;4955090;28;20915;-77
2022/06/26 02:42:58;;;;;;;3.87;2.37;;;;;;;;;;4971549;28;20246;-77
2022/06/26 02:45:25;;;;;;;3.47;2.20;;;;;;;;;;4952954;28;20764;-77
2022/06/26 02:47:51;;;;;;;2.27;2.00;;;;;;;;;;4970250;28;20196;-77
2022/06/26 02:50:18;;;;;;;4.53;2.00;;;;;;;;;;4972121;28;20590;-77
2022/06/26 02:52:44;;;;;;;1.73;1.63;;;;;;;;;;4970987;28;20208;-77
2022/06/26 02:55:11;;;;;;;2.27;1.80;;;;;;;;;;4956247;28;20187;-77
2022/06/26 02:57:41;;;;;;;3.10;2.10;;;;;;;;;;4971700;28;20527;-77
2022/06/26 03:00:09;;;;;;;2.10;1.90;;;;;;;;;;4971216;28;20694;-77
2022/06/26 03:02:38;;;;;;;2.10;1.83;;;;;;;;;;4959485;28;20255;-77
2022/06/26 03:05:08;;;;;;;2.47;1.97;;;;;;;;;;4955703;28;20267;-77
2022/06/26 03:07:35;;;;;;;2.97;1.90;;;;;;;;;;4970671;28;20656;-77
2022/06/26 03:10:02;;;;;;;2.77;1.93;;;;;;;;;;4969676;28;20688;-77
2022/06/26 03:12:28;;;;;;;1.90;1.70;;;;;;;;;;4972112;28;20215;-77
2022/06/26 03:14:54;;;;;;;2.67;2.00;;;;;;;;;;4953346;28;20282;-77
2022/06/26 03:17:21;;;;;;;2.67;1.87;;;;;;;;;;4958937;28;20180;-77
2022/06/26 03:19:48;;;;;;;2.87;2.00;;;;;;;;;;4957947;28;20251;-77
2022/06/26 03:22:14;;;;;;;2.40;2.20;;;;;;;;;;4974502;28;20208;-77
2022/06/26 03:24:40;;;;;;;2.47;2.27;;;;;;;;;;4970254;28;20265;-77
2022/06/26 03:27:07;;;;;;;2.20;2.00;;;;;;;;;;4971179;28;20653;-76
2022/06/26 03:29:33;;;;;;;2.17;1.80;;;;;;;;;;4968084;28;20255;-77
2022/06/26 03:32:03;;;;;;;2.47;1.90;;;;;;;;;;4967329;28;20711;-77
2022/06/26 03:34:29;;;;;;;2.27;2.10;;;;;;;;;;4970720;28;20228;-77
2022/06/26 03:37:00;;;;;;;2.37;1.80;;;;;;;;;;4969306;28;20185;-77
2022/06/26 03:39:26;;;;;;;2.70;1.80;;;;;;;;;;4956385;28;20550;-77
2022/06/26 03:42:02;;;;;;;1.73;1.53;;;;;;;;;;4971600;28;20196;-78
2022/06/26 03:44:34;;;;;;;3.47;1.63;;;;;;;;;;4962233;28;20192;-76
2022/06/26 03:47:00;;;;;;;3.23;2.00;;;;;;;;;;4982053;28;20180;-77
2022/06/26 03:49:27;;;;;;;3.03;2.00;;;;;;;;;;4983296;28;20581;-76
2022/06/26 03:51:57;;;;;;;3.77;2.00;;;;;;;;;;4951906;28;20259;-76
2022/06/26 03:54:25;;;;;;;5.40;2.50;;;;;;;;;;4983182;28;20185;-77
2022/06/26 03:56:52;;;;;;;4.37;2.37;;;;;;;;;;4975002;28;20184;-76
2022/06/26 03:59:18;;;;;;;5.20;2.53;;;;;;;;;;4955723;28;20656;-76
2022/06/26 04:01:46;;;;;;;3.03;2.30;;;;;;;;;;4974599;28;20188;-76
2022/06/26 04:04:12;;;;;;;2.50;2.30;;;;;;;;;;4963473;28;20279;-77
2022/06/26 04:06:39;;;;;;;2.70;2.10;;;;;;;;;;4973744;28;20221;-76
2022/06/26 04:09:16;;;;;;;2.40;2.20;;;;;;;;;;4955618;28;20247;-77
2022/06/26 04:11:43;;;;;;;3.20;2.30;;;;;;;;;;4964217;28;20718;-77
2022/06/26 04:14:09;;;;;;;3.80;2.30;;;;;;;;;;4964906;28;20208;-76
2022/06/26 04:16:36;;;;;;;3.37;2.53;;;;;;;;;;4977079;28;20181;-76
2022/06/26 04:19:03;;;;;;;3.03;2.40;;;;;;;;;;4960838;28;20181;-76
2022/06/26 04:21:30;;;;;;;2.40;2.20;;;;;;;;;;4973656;28;20684;-76
2022/06/26 04:23:56;;;;;;;2.90;2.50;;;;;;;;;;4975484;28;20518;-76
2022/06/26 04:26:23;;;;;;;2.23;1.90;;;;;;;;;;4976767;28;20239;-76
2022/06/26 04:28:49;;;;;;;3.43;2.13;;;;;;;;;;4961293;28;20204;-76
2022/06/26 04:31:16;;;;;;;2.60;2.00;;;;;;;;;;4983645;28;20232;-77
2022/06/26 04:33:43;;;;;;;3.03;2.43;;;;;;;;;;4946468;28;20184;-74
2022/06/26 04:36:11;;;;;;;3.17;2.40;;;;;;;;;;4945398;29;20181;-77
2022/06/26 04:38:37;;;;;;;2.70;2.50;;;;;;;;;;4974753;28;20192;-76
2022/06/26 04:41:31;;;;;;;2.77;2.40;;;;;;;;;;4976130;28;20207;-76
2022/06/26 04:43:50;;;;;;;2.60;2.40;;;;;;;;;;4944883;28;20267;-77
2022/06/26 04:46:16;;;;;;;3.40;2.43;;;;;;;;;;4968567;28;20273;-76
2022/06/26 04:48:44;;;;;;;3.37;2.30;;;;;;;;;;4940677;28;20197;-76
2022/06/26 04:51:12;;;;;;;4.20;2.67;;;;;;;;;;4944403;28;20212;-76
2022/06/26 04:53:39;;;;;;;2.93;2.73;;;;;;;;;;4976977;28;20196;-77
2022/06/26 04:56:05;;;;;;;3.00;2.70;;;;;;;;;;4957843;28;20184;-76
2022/06/26 04:58:42;;;;;;;2.70;2.50;;;;;;;;;;4954073;28;20645;-76
2022/06/26 05:01:09;;;;;;;2.60;2.40;;;;;;;;;;4952410;28;20590;-77
2022/06/26 05:03:54;;;;;;;3.53;2.87;;;;;;;;;;4968336;28;20276;-77
2022/06/26 05:06:43;;;;;;;6.73;2.80;;;;;;;;;;4966010;28;20542;-76
2022/06/26 05:09:25;;;;;;;3.33;2.63;;;;;;;;;;4975114;28;20196;-76
2022/06/26 05:11:52;;;;;;;3.27;2.80;;;;;;;;;;4976588;28;20216;-77
2022/06/26 05:14:19;;;;;;;4.33;2.40;;;;;;;;;;4955892;28;20204;-77
2022/06/26 05:17:11;;;;;;;3.53;2.23;;;;;;;;;;4974810;28;20187;-77
2022/06/26 05:19:38;;;;;;;2.30;2.10;;;;;;;;;;4977535;28;20212;-77
2022/06/26 05:22:08;;;;;;;2.50;2.27;;;;;;;;;;4961314;28;20192;-77
2022/06/26 05:24:37;;;;;;;4.37;2.10;;;;;;;;;;4976889;28;20189;-77
2022/06/26 05:27:04;;;;;;;2.40;2.10;;;;;;;;;;4969552;28;20197;-77
2022/06/26 05:29:30;;;;;;;2.20;2.00;;;;;;;;;;4978131;28;20207;-77
2022/06/26 05:31:57;;;;;;;3.47;2.03;;;;;;;;;;4959732;28;20217;-77
2022/06/26 05:34:23;;;;;;;2.30;2.10;;;;;;;;;;4967308;28;20279;-77
2022/06/26 05:36:49;;;;;;;4.93;2.20;;;;;;;;;;4958731;28;20208;-76
2022/06/26 05:39:16;;;;;;;4.40;2.10;;;;;;;;;;4959400;28;20181;-77
2022/06/26 05:41:43;;;;;;;2.10;1.90;;;;;;;;;;4944635;28;20218;-76
2022/06/26 05:44:10;;;;;;;2.10;2.00;;;;;;;;;;4959880;28;20232;-76
2022/06/26 05:46:41;;;;;;;3.83;2.00;;;;;;;;;;4955575;28;20661;-76
2022/06/26 05:49:26;;;;;;;2.50;2.30;;;;;;;;;;4970886;28;20215;-76
2022/06/26 05:52:10;;;;;;;4.83;2.20;;;;;;;;;;4964011;28;20219;-76
2022/06/26 05:55:12;;;;;;;4.00;2.40;;;;;;;;;;4955735;28;20180;-76
2022/06/26 05:57:57;;;;;;;2.50;2.30;;;;;;;;;;4961047;28;20192;-76
2022/06/26 06:00:29;;;;;;;2.73;2.53;;;;;;;;;;4964356;28;20212;-76
2022/06/26 06:02:55;;;;;;;3.10;2.30;;;;;;;;;;4970281;28;20283;-76
2022/06/26 06:05:22;;;;;;;3.60;2.60;;;;;;;;;;4965862;28;20259;-77
2022/06/26 06:07:49;;;;;;;3.50;2.30;;;;;;;;;;4940622;28;20200;-77
2022/06/26 06:10:18;;;;;;;2.67;2.43;;;;;;;;;;4973643;28;20257;-77
2022/06/26 06:12:44;;;;;;;3.13;2.10;;;;;;;;;;4943078;28;20279;-76
2022/06/26 06:15:11;;;;;;;3.00;2.20;;;;;;;;;;4977697;28;20723;-76
2022/06/26 06:17:42;;;;;;;2.30;2.00;;;;;;;;;;4969609;28;20200;-77
2022/06/26 06:20:11;;;;;;;2.37;2.03;;;;;;;;;;4956799;28;20204;-77
2022/06/26 06:22:39;;;;;;;2.23;1.80;;;;;;;;;;4977521;28;20201;-77
2022/06/26 06:25:06;;;;;;;3.00;2.30;;;;;;;;;;4977306;28;20223;-77
2022/06/26 06:27:32;;;;;;;2.00;1.90;;;;;;;;;;4947267;28;20648;-77
2022/06/26 06:30:06;;;;;;;2.57;1.90;;;;;;;;;;4953420;28;20216;-77
2022/06/26 06:32:32;;;;;;;3.43;1.93;;;;;;;;;;4966588;28;20294;-77
2022/06/26 06:34:59;;;;;;;3.53;2.00;;;;;;;;;;4961233;28;20180;-77
2022/06/26 06:37:25;;;;;;;2.57;1.90;;;;;;;;;;4957948;28;20268;-77
2022/06/26 06:39:52;;;;;;;2.70;1.87;;;;;;;;;;4958128;28;20208;-77
2022/06/26 06:42:18;;;;;;;2.43;2.20;;;;;;;;;;4967932;28;20195;-77
2022/06/26 06:44:44;;;;;;;2.57;2.30;;;;;;;;;;4975710;28;20196;-77
2022/06/26 06:47:43;;;;;;;2.57;1.80;;;;;;;;;;4945406;28;20189;-77
2022/06/26 06:50:29;;;;;;;3.03;2.20;;;;;;;;;;4947395;28;20306;-77
2022/06/26 06:52:56;;;;;;;2.23;2.03;;;;;;;;;;4960836;28;20242;-77
2022/06/26 06:55:23;;;;;;;4.90;2.20;;;;;;;;;;4963540;28;20259;-76
2022/06/26 06:57:49;;;;;;;2.30;2.10;;;;;;;;;;4977789;28;20234;-77
2022/06/26 07:00:16;;;;;;;2.00;1.90;;;;;;;;;;4950534;28;20243;-70
2022/06/26 07:02:42;;;;;;;2.33;2.13;;;;;;;;;;4971397;28;20196;-71
2022/06/26 07:05:08;;;;;;;2.50;2.30;;;;;;;;;;4948323;28;20185;-73
2022/06/26 07:07:35;;;;;;;2.40;2.20;;;;;;;;;;4954332;28;20295;-72
2022/06/26 07:10:01;;;;;;;2.40;2.20;;;;;;;;;;4968455;28;20208;-71
2022/06/26 07:12:28;;;;;;;2.77;2.30;;;;;;;;;;4951165;28;20260;-74
2022/06/26 07:14:54;;;;;;;3.00;2.60;;;;;;;;;;4971367;28;20192;-75
2022/06/26 07:17:22;;;;;;;2.50;2.20;;;;;;;;;;4972492;28;20184;-78
2022/06/26 07:19:52;;;;;;;4.60;2.57;;;;;;;;;;4952116;28;20680;-77
2022/06/26 07:22:18;;;;;;;2.47;2.27;;;;;;;;;;4949975;28;20649;-77
2022/06/26 07:24:45;;;;;;;2.67;2.20;;;;;;;;;;4958711;28;20271;-79
2022/06/26 07:27:23;;;;;;;2.67;2.47;;;;;;;;;;4960259;28;20189;-77
2022/06/26 07:29:50;;;;;;;2.70;2.50;;;;;;;;;;4952743;28;20282;-78
2022/06/26 07:32:16;;;;;;;2.53;2.20;;;;;;;;;;4971180;28;20299;-78
2022/06/26 07:34:43;;;;;;;2.57;2.10;;;;;;;;;;4970112;28;20191;-78
2022/06/26 07:37:09;;;;;;;2.87;2.20;;;;;;;;;;4969282;28;20208;-78
2022/06/26 07:39:35;;;;;;;2.53;2.20;;;;;;;;;;4953645;28;20188;-78
2022/06/26 07:42:02;;;;;;;3.27;2.97;;;;;;;;;;4937697;28;20291;-77
2022/06/26 07:44:31;;;;;;;2.83;2.63;;;;;;;;;;4959097;28;20280;-78
2022/06/26 07:46:57;;;;;;;4.47;2.20;;;;;;;;;;4973480;28;20192;-78
2022/06/26 07:49:38;;;;;;;3.27;2.30;;;;;;;;;;4979084;28;20270;-78
2022/06/26 07:52:05;;;;;;;3.97;2.33;;;;;;;;;;4961090;28;20243;-78
2022/06/26 07:54:31;;;;;;;3.60;3.00;;;;;;;;;;4972791;28;20682;-78
2022/06/26 07:56:58;;;;;;;2.53;2.33;;;;;;;;;;4963989;28;20180;-78
2022/06/26 07:59:25;;;;;;;2.50;2.30;;;;;;;;;;4964312;28;20200;-73
2022/06/26 08:01:51;;;;;;;2.03;1.90;;;;;;;;;;4971600;28;20200;-78
2022/06/26 08:04:17;;;;;;;2.30;2.10;;;;;;;;;;4981938;28;20184;-78
2022/06/26 08:06:43;;;;;;;2.40;2.10;;;;;;;;;;4971251;28;20259;-78
2022/06/26 08:09:09;;;;;;;2.37;2.17;;;;;;;;;;4971142;28;20181;-79
2022/06/26 08:11:36;;;;;;;2.40;2.20;;;;;;;;;;4972131;28;20711;-78
2022/06/26 08:14:03;;;;;;;2.60;2.40;;;;;;;;;;4965867;28;20203;-78
2022/06/26 08:16:29;;;;;;;3.37;2.20;;;;;;;;;;4971841;28;20196;-78
2022/06/26 08:18:56;;;;;;;4.33;2.23;;;;;;;;;;4983038;28;20183;-78
2022/06/26 08:24:07;;;;;;;1.90;1.80;;;;;;;;;;4970869;28;20192;-78
2022/06/26 08:26:33;;;;;;;2.07;1.80;;;;;;;;;;4969785;28;20276;-78
2022/06/26 08:28:59;;;;;;;2.97;1.60;;;;;;;;;;4970592;28;20197;-78
2022/06/26 08:31:25;;;;;;;1.50;1.40;;;;;;;;;;4970304;28;20204;-78
2022/06/26 08:33:52;;;;;;;2.07;1.60;;;;;;;;;;4954448;28;20189;-78
2022/06/26 08:36:18;;;;;;;1.77;1.43;;;;;;;;;;4969172;28;20182;-78
2022/06/26 08:38:44;;;;;;;1.77;1.60;;;;;;;;;;4951416;28;20559;-77
2022/06/26 08:41:12;;;;;;;1.50;1.40;;;;;;;;;;4969924;28;20204;-77
2022/06/26 08:43:40;;;;;;;1.60;1.50;;;;;;;;;;4959084;28;20188;-77
2022/06/26 08:46:06;;;;;;;1.57;1.47;;;;;;;;;;4970125;28;20192;-76
2022/06/26 08:48:39;;;;;;;1.50;1.40;;;;;;;;;;4975661;28;20299;-78
2022/06/26 08:51:05;;;;;;;1.70;1.60;;;;;;;;;;4938733;28;20208;-78
2022/06/26 08:53:32;;;;;;;2.13;1.47;;;;;;;;;;4958703;28;20255;-76
2022/06/26 08:55:58;;;;;;;2.37;1.70;;;;;;;;;;4963078;28;20195;-75
2022/06/26 08:58:24;;;;;;;1.70;1.60;;;;;;;;;;4947212;28;20193;-79
2022/06/26 09:00:50;;;;;;;3.17;1.80;;;;;;;;;;4969375;28;20208;-74
2022/06/26 09:03:17;;;;;;;1.60;1.50;;;;;;;;;;4965574;28;20190;-79
2022/06/26 09:05:43;;;;;;;2.63;1.70;;;;;;;;;;4967163;28;20661;-74
2022/06/26 09:08:17;;;;;;;2.07;1.40;;;;;;;;;;4970891;28;20523;-76
2022/06/26 09:10:44;;;;;;;2.90;1.23;;;;;;;;;;4966569;28;20211;-76
2022/06/26 09:13:10;;;;;;;1.50;1.40;;;;;;;;;;4965329;28;20728;-77
2022/06/26 09:15:39;;;;;;;1.60;1.40;;;;;;;;;;4956906;28;20275;-77
2022/06/26 09:18:06;;;;;;;1.43;1.30;;;;;;;;;;4972895;28;20267;-77
2022/06/26 09:20:33;;;;;;;3.23;1.20;;;;;;;;;;4969882;28;20577;-76
2022/06/26 09:23:01;;;;;;;1.40;1.30;;;;;;;;;;4970476;28;20283;-77
2022/06/26 09:25:34;;;;;;;2.43;1.47;;;;;;;;;;4973549;28;20208;-78
2022/06/26 09:28:07;;;;;;;2.23;1.43;;;;;;;;;;4972737;28;20690;-76
2022/06/26 09:30:33;;;;;;;1.37;1.20;;;;;;;;;;4974212;28;20250;-77
2022/06/26 09:33:02;;;;;;;1.50;1.40;;;;;;;;;;4973756;28;20197;-76
2022/06/26 09:35:28;;;;;;;1.27;1.17;;;;;;;;;;4974025;28;20173;-76
2022/06/26 09:37:54;;;;;;;1.53;1.20;;;;;;;;;;4974574;28;20192;-76
2022/06/26 09:40:20;;;;;;;1.30;1.20;;;;;;;;;;4973729;28;20209;-76
2022/06/26 09:42:46;;;;;;;1.57;1.30;;;;;;;;;;4972279;28;20192;-76
2022/06/26 09:45:13;;;;;;;2.23;1.20;;;;;;;;;;4971477;28;20185;-76
2022/06/26 09:47:39;;;;;;;2.03;1.50;;;;;;;;;;4973739;28;20258;-76
2022/06/26 09:50:07;;;;;;;2.17;1.43;;;;;;;;;;4974323;28;20208;-76
2022/06/26 09:52:33;;;;;;;1.50;1.40;;;;;;;;;;4974464;28;20204;-76
2022/06/26 09:55:00;;;;;;;2.93;1.37;;;;;;;;;;4968682;28;20185;-77
2022/06/26 09:57:27;;;;;;;1.50;1.40;;;;;;;;;;4970261;28;20165;-76
2022/06/26 09:59:54;;;;;;;2.93;1.30;;;;;;;;;;4973547;28;20208;-76
2022/06/26 10:07:53;;;;;;;1.97;1.20;;;;;;;;;;4973297;28;20191;-76
2022/06/26 10:10:21;;;;;;;1.67;1.50;;;;;;;;;;4956830;28;20222;-76
2022/06/26 10:12:48;;;;;;;5.33;1.57;;;;;;;;;;4964027;28;20208;-76
2022/06/26 10:15:17;;;;;;;1.40;1.30;;;;;;;;;;4973369;28;20187;-78
2022/06/26 10:17:53;;;;;;;2.10;1.20;;;;;;;;;;4971939;28;20188;-76
2022/06/26 10:20:20;;;;;;;2.10;1.30;;;;;;;;;;4974033;28;20208;-76
2022/06/26 10:22:46;;;;;;;1.87;1.50;;;;;;;;;;4974737;28;20185;-76
2022/06/26 10:25:26;;;;;;;1.83;1.40;;;;;;;;;;4973983;28;20188;-76
2022/06/26 10:27:52;;;;;;;3.63;1.30;;;;;;;;;;4954686;28;20200;-76
2022/06/26 10:30:20;;;;;;;1.40;1.27;;;;;;;;;;4974967;28;20216;-76
2022/06/26 10:32:46;;;;;;;1.90;1.53;;;;;;;;;;4972490;28;20545;-76
2022/06/26 10:35:13;;;;;;;1.67;1.23;;;;;;;;;;4982132;28;20264;-76
2022/06/26 10:37:41;;;;;;;1.53;1.20;;;;;;;;;;4967417;28;20173;-76
2022/06/26 10:40:13;;;;;;;2.13;1.30;;;;;;;;;;4971720;28;20581;-78
2022/06/26 10:42:53;;;;;;;2.23;1.23;;;;;;;;;;4971754;28;20265;-77
2022/06/26 10:45:20;;;;;;;1.33;1.23;;;;;;;;;;4959552;28;20188;-77
2022/06/26 10:47:53;;;;;;;1.23;1.13;;;;;;;;;;4972786;28;20192;-77
2022/06/26 10:50:28;;;;;;;1.40;1.30;;;;;;;;;;4972602;28;20208;-76
2022/06/26 10:53:00;;;;;;;1.70;1.20;;;;;;;;;;4973002;28;20207;-76
2022/06/26 10:55:26;;;;;;;1.97;1.20;;;;;;;;;;4964485;28;20256;-76
2022/06/26 10:57:52;;;;;;;1.40;1.30;;;;;;;;;;4955259;28;20215;-76
2022/06/26 11:00:19;;;;;;;1.53;1.20;;;;;;;;;;4972739;28;20196;-77
2022/06/26 11:02:46;;;;;;;1.50;1.37;;;;;;;;;;4972971;28;20180;-77
2022/06/26 11:05:12;;;;;;;1.37;1.10;;;;;;;;;;4972858;28;20676;-76
2022/06/26 11:07:42;;;;;;;1.50;1.20;;;;;;;;;;4973062;28;20315;-76
2022/06/26 11:10:09;;;;;;;1.37;1.10;;;;;;;;;;4972724;28;20200;-76
2022/06/26 11:12:42;;;;;;;1.47;1.10;;;;;;;;;;4971772;28;20212;-76
2022/06/26 11:15:19;;;;;;;1.10;1.00;;;;;;;;;;4973051;28;20208;-76
2022/06/26 11:17:53;;;;;;;1.10;1.10;;;;;;;;;;4972438;28;20660;-76
2022/06/26 11:23:11;;;;;;;1.47;1.10;;;;;;;;;;4952560;29;20635;-77
2022/06/26 11:25:37;;;;;;;3.40;1.10;;;;;;;;;;4971089;28;20188;-77
2022/06/26 11:28:08;;;;;;;1.30;1.17;;;;;;;;;;4971511;28;20184;-77
2022/06/26 11:30:35;;;;;;;1.70;1.20;;;;;;;;;;4971771;28;20243;-78
2022/06/26 11:33:02;;;;;;;1.03;1.00;;;;;;;;;;4969094;28;20257;-77
2022/06/26 11:35:28;;;;;;;1.27;1.10;;;;;;;;;;4971362;28;20181;-77
2022/06/26 11:37:54;;;;;;;3.50;1.20;;;;;;;;;;4970721;28;20472;-77
2022/06/26 11:40:22;;;;;;;1.20;1.10;;;;;;;;;;4969626;28;20205;-77
2022/06/26 11:42:55;;;;;;;1.57;1.10;;;;;;;;;;4971150;28;20190;-77
2022/06/26 11:45:24;;;;;;;1.30;1.20;;;;;;;;;;4971259;28;20182;-77
2022/06/26 11:47:50;;;;;;;1.23;1.13;;;;;;;;;;4968428;28;20190;-77
2022/06/26 11:50:24;;;;;;;1.30;1.20;;;;;;;;;;4964292;28;20260;-77
2022/06/26 11:52:53;;;;;;;1.20;1.10;;;;;;;;;;4971056;28;20212;-80
2022/06/26 11:55:19;;;;;;;1.40;1.17;;;;;;;;;;4971942;28;20179;-77
2022/06/26 11:57:46;;;;;;;1.20;1.10;;;;;;;;;;4952735;28;20641;-77
2022/06/26 12:00:12;;;;;;;1.27;1.17;;;;;;;;;;4959424;28;21195;-82
2022/06/26 12:02:42;;;;;;;1.20;1.10;;;;;;;;;;4969072;28;20188;-76
2022/06/26 12:05:09;;;;;;;1.23;1.10;;;;;;;;;;4969273;28;20189;-78
2022/06/26 12:07:45;;;;;;;1.37;1.27;;;;;;;;;;4971979;28;20674;-78
2022/06/26 12:10:12;;;;;;;1.50;1.30;;;;;;;;;;4971660;28;20207;-77
2022/06/26 12:12:48;;;;;;;1.80;1.20;;;;;;;;;;4969299;28;20420;-75
2022/06/26 12:15:15;;;;;;;1.00;1.00;;;;;;;;;;4952684;28;20509;-78
2022/06/26 12:17:42;;;;;;;1.37;1.27;;;;;;;;;;4953981;28;20214;-76
2022/06/26 12:20:10;;;;;;;1.20;1.10;;;;;;;;;;4953975;28;20206;-77
2022/06/26 12:22:36;;;;;;;1.30;1.20;;;;;;;;;;4971487;28;20196;-78
2022/06/26 12:25:03;;;;;;;1.60;1.30;;;;;;;;;;4956327;28;20220;-78
2022/06/26 12:27:36;;;;;;;2.50;1.10;;;;;;;;;;4960596;28;20201;-76
2022/06/26 12:30:14;;;;;;;1.30;1.10;;;;;;;;;;4969671;28;20294;-76
2022/06/26 12:32:40;;;;;;;1.10;1.00;;;;;;;;;;4970413;28;20213;-77
2022/06/26 12:35:07;;;;;;;1.53;1.10;;;;;;;;;;4966152;28;20195;-78
2022/06/26 12:37:33;;;;;;;1.10;1.00;;;;;;;;;;4951361;28;20198;-78
2022/06/26 12:39:59;;;;;;;2.40;1.17;;;;;;;;;;4971090;28;20249;-77
2022/06/26 12:42:25;;;;;;;2.03;1.20;;;;;;;;;;4971280;28;20181;-78
2022/06/26 12:44:51;;;;;;;1.63;1.00;;;;;;;;;;4979405;28;20177;-80
2022/06/26 12:47:17;;;;;;;1.20;1.10;;;;;;;;;;4959919;28;20214;-77
2022/06/26 12:49:44;;;;;;;1.20;1.00;;;;;;;;;;4975630;28;20200;-79
2022/06/26 12:52:10;;;;;;;1.30;1.00;;;;;;;;;;4975409;28;20253;-82
2022/06/26 12:54:36;;;;;;;1.67;1.00;;;;;;;;;;4959300;28;20198;-79
2022/06/26 12:57:02;;;;;;;1.17;1.00;;;;;;;;;;4972150;28;20208;-80
2022/06/26 12:59:28;;;;;;;1.20;1.10;;;;;;;;;;4969088;28;20176;-80
2022/06/26 13:01:54;;;;;;;1.00;1.00;;;;;;;;;;4957329;28;20196;-77
2022/06/26 13:04:20;;;;;;;1.17;1.07;;;;;;;;;;4975200;28;20179;-77
2022/06/26 13:06:47;;;;;;;1.20;1.10;;;;;;;;;;4973771;28;20191;-74
2022/06/26 13:09:13;;;;;;;4.10;1.10;;;;;;;;;;4973138;28;20683;-74
2022/06/26 13:11:39;;;;;;;2.10;1.10;;;;;;;;;;4978670;28;20224;-75
2022/06/26 13:14:05;;;;;;;1.20;1.03;;;;;;;;;;4974053;28;20185;-77
2022/06/26 13:16:32;;;;;;;1.13;1.10;;;;;;;;;;4970876;28;20196;-75
2022/06/26 13:18:58;;;;;;;1.47;1.20;;;;;;;;;;4970835;28;20184;-73
2022/06/26 13:21:25;;;;;;;1.93;1.30;;;;;;;;;;4970503;28;20204;-75
2022/06/26 13:23:51;;;;;;;1.03;1.00;;;;;;;;;;4973066;28;20215;-78
2022/06/26 13:26:18;;;;;;;1.10;1.00;;;;;;;;;;4972693;28;20182;-75
2022/06/26 13:28:44;;;;;;;2.43;1.10;;;;;;;;;;4973709;28;20292;-75
2022/06/26 13:31:10;;;;;;;1.20;1.10;;;;;;;;;;4975088;28;20210;-74
2022/06/26 13:33:36;;;;;;;2.00;1.30;;;;;;;;;;4972497;28;20181;-83
2022/06/26 13:36:03;;;;;;;2.20;1.07;;;;;;;;;;4955203;28;20192;-76
2022/06/26 13:38:29;;;;;;;2.33;1.00;;;;;;;;;;4960825;28;21026;-80
2022/06/26 13:40:55;;;;;;;1.00;0.90;;;;;;;;;;4972053;28;20361;-74
2022/06/26 13:43:22;;;;;;;1.50;1.03;;;;;;;;;;4971592;28;20208;-77
2022/06/26 13:45:48;;;;;;;0.87;0.87;;;;;;;;;;4971222;28;20191;-77
2022/06/26 13:48:14;;;;;;;1.63;1.03;;;;;;;;;;4969730;28;20195;-77
2022/06/26 13:50:40;;;;;;;0.90;0.90;;;;;;;;;;4971264;28;20229;-77
2022/06/26 13:53:06;;;;;;;0.90;0.90;;;;;;;;;;4971324;28;20271;-77
2022/06/26 13:55:32;;;;;;;1.00;1.00;;;;;;;;;;4972112;28;20185;-77
2022/06/26 13:57:59;;;;;;;0.90;0.90;;;;;;;;;;4952773;28;20229;-77
2022/06/26 14:00:25;;;;;;;1.20;1.10;;;;;;;;;;4971995;28;20213;-77
2022/06/26 14:02:51;;;;;;;1.17;1.10;;;;;;;;;;4971143;28;20197;-77
2022/06/26 14:05:17;;;;;;;1.67;1.10;;;;;;;;;;4971430;28;20215;-77
2022/06/26 14:07:43;;;;;;;0.90;0.90;;;;;;;;;;4969843;28;20269;-77
2022/06/26 14:10:09;;;;;;;1.10;1.00;;;;;;;;;;4970497;28;20560;-77
2022/06/26 14:12:37;;;;;;;0.97;0.97;;;;;;;;;;4967782;28;20231;-77
2022/06/26 14:15:03;;;;;;;1.53;1.00;;;;;;;;;;4969994;28;20234;-77
2022/06/26 14:17:29;;;;;;;1.23;1.10;;;;;;;;;;4973735;28;20268;-77
2022/06/26 14:19:58;;;;;;;2.53;1.17;;;;;;;;;;4967953;28;20201;-77
2022/06/26 14:27:54;;;;;;;1.10;1.00;;;;;;;;;;4969699;28;20214;-77
2022/06/26 14:30:20;;;;;;;1.73;1.07;;;;;;;;;;4970182;28;20204;-75
2022/06/26 14:32:46;;;;;;;1.00;0.90;;;;;;;;;;4970263;28;20217;-72
2022/06/26 14:35:13;;;;;;;0.97;0.90;;;;;;;;;;4971676;28;20177;-72
2022/06/26 14:37:39;;;;;;;1.20;1.10;;;;;;;;;;4970729;28;20199;-71
2022/06/26 14:40:06;;;;;;;1.10;1.00;;;;;;;;;;4968044;28;20205;-73
2022/06/26 14:42:32;;;;;;;1.50;1.20;;;;;;;;;;4967652;28;20685;-72
2022/06/26 14:44:58;;;;;;;1.23;1.13;;;;;;;;;;4970058;28;20192;-71
2022/06/26 14:47:25;;;;;;;1.43;1.20;;;;;;;;;;4968969;28;20612;-71
2022/06/26 14:49:51;;;;;;;1.93;1.17;;;;;;;;;;4970977;28;20494;-72
2022/06/26 14:52:17;;;;;;;1.20;1.10;;;;;;;;;;4967414;28;20305;-72
2022/06/26 14:54:43;;;;;;;1.20;1.10;;;;;;;;;;4966926;28;20187;-73
2022/06/26 14:57:09;;;;;;;1.00;1.00;;;;;;;;;;4950862;28;20212;-72
2022/06/26 14:59:37;;;;;;;1.57;1.10;;;;;;;;;;4966585;28;20185;-72
2022/06/26 15:02:05;;;;;;;2.03;1.10;;;;;;;;;;4967270;28;20225;-73
2022/06/26 15:04:33;;;;;;;1.40;1.20;;;;;;;;;;4966795;28;20310;-73
2022/06/26 15:06:59;;;;;;;0.90;0.90;;;;;;;;;;4969021;28;20238;-73
2022/06/26 15:09:25;;;;;;;1.10;1.00;;;;;;;;;;4964166;28;20685;-73